createdAt,value
2023-03-05T00:03:38.182Z,100036.25
2023-03-05T00:09:00.188Z,100038.88
2023-03-05T00:14:22.550Z,100032.13
2023-03-05T00:19:44.391Z,100044.00
2023-03-05T00:25:06.817Z,100035.59
2023-03-05T00:30:28.697Z,100038.09
2023-03-05T00:35:50.710Z,100029.78
2023-03-05T00:41:12.612Z,100011.16
2023-03-05T00:46:34.530Z,99999.22
2023-03-05T00:51:56.398Z,100006.91
2023-03-05T00:57:18.357Z,100006.94
2023-03-05T01:02:40.777Z,99999.44
2023-03-05T01:08:03.260Z,99998.72
2023-03-05T01:13:25.103Z,99981.09
2023-03-05T01:18:46.933Z,99974.28
2023-03-05T01:24:09.124Z,99970.81
2023-03-05T01:29:31.142Z,99971.66
2023-03-05T01:34:52.949Z,99943.72
2023-03-05T01:40:18.134Z,99960.72
2023-03-05T01:46:11.644Z,99964.81
2023-03-05T01:51:45.771Z,99956.50
2023-03-05T01:57:12.586Z,99923.50
2023-03-05T02:02:34.580Z,99932.75
2023-03-05T02:07:58.073Z,99921.69
2023-03-05T02:13:26.205Z,99942.06
2023-03-05T02:18:48.028Z,99947.22
2023-03-05T02:24:13.045Z,99928.47
2023-03-05T02:29:38.869Z,99907.19
2023-03-05T02:35:00.728Z,99936.81
2023-03-05T02:40:23.064Z,99935.22
2023-03-05T02:45:46.013Z,99908.84
2023-03-05T02:51:08.527Z,99903.66
2023-03-05T02:56:30.536Z,99917.19
2023-03-05T03:01:52.356Z,99918.06
2023-03-05T03:07:15.546Z,99880.63
2023-03-05T03:12:42.943Z,99895.09
2023-03-05T03:18:04.818Z,99903.53
2023-03-05T03:23:26.995Z,99908.72
2023-03-05T03:28:48.843Z,99904.53
2023-03-05T03:34:10.774Z,99901.94
2023-03-05T03:39:32.685Z,99901.19
2023-03-05T03:44:54.603Z,99885.19
2023-03-05T03:50:17.359Z,99886.03
2023-03-05T03:55:39.209Z,99874.25
2023-03-05T04:01:01.149Z,99874.28
2023-03-05T04:06:23.067Z,99870.84
2023-03-05T04:11:44.984Z,99867.66
2023-03-05T04:17:06.809Z,99858.44
2023-03-05T04:22:28.637Z,99859.38
2023-03-05T04:27:50.488Z,99853.53
2023-03-05T04:33:12.375Z,99832.25
2023-03-05T04:38:34.225Z,99840.09
2023-03-05T04:43:56.209Z,99840.19
2023-03-05T04:49:18.108Z,99835.13
2023-03-05T04:54:40.337Z,99830.94
2023-03-05T05:00:02.867Z,99822.44
2023-03-05T05:05:28.334Z,99802.06
2023-03-05T05:11:04.474Z,99814.09
2023-03-05T05:16:26.264Z,99811.25
2023-03-05T05:21:48.109Z,99785.44
2023-03-05T05:27:09.929Z,99797.59
2023-03-05T05:32:31.946Z,99799.44
2023-03-05T05:37:54.265Z,99775.94
2023-03-05T05:43:16.124Z,99786.06
2023-03-05T05:48:38.319Z,99783.28
2023-03-05T05:54:00.169Z,99780.22
2023-03-05T05:59:22.019Z,99756.28
2023-03-05T06:04:43.877Z,99752.88
2023-03-05T06:10:06.448Z,99750.72
2023-03-05T06:15:28.307Z,99749.72
2023-03-05T06:21:06.105Z,99731.22
2023-03-05T06:26:28.065Z,99716.16
2023-03-05T06:31:49.910Z,99707.72
2023-03-05T06:37:11.749Z,99706.25
2023-03-05T06:42:34.826Z,99718.31
2023-03-05T06:47:56.672Z,99730.69
2023-03-05T06:53:18.501Z,99718.47
2023-03-05T06:58:41.022Z,99691.75
2023-03-05T07:04:03.316Z,99693.72
2023-03-05T07:09:25.144Z,99693.25
2023-03-05T07:14:46.999Z,99671.72
2023-03-05T07:20:09.786Z,99681.06
2023-03-05T07:25:32.114Z,99668.25
2023-03-05T07:30:58.982Z,99682.63
2023-03-05T07:36:20.964Z,99692.50
2023-03-05T07:41:42.798Z,99682.72
2023-03-05T07:47:05.389Z,99676.69
2023-03-05T07:52:27.297Z,99679.88
2023-03-05T07:57:49.157Z,99683.75
2023-03-05T08:03:11.003Z,99686.72
2023-03-05T08:08:32.886Z,99694.25
2023-03-05T08:13:54.752Z,99686.63
2023-03-05T08:19:16.618Z,99682.19
2023-03-05T08:24:38.518Z,99668.47
2023-03-05T08:30:01.809Z,99683.81
2023-03-05T08:35:23.914Z,99679.50
2023-03-05T08:40:45.880Z,99684.22
2023-03-05T08:46:07.898Z,99685.88
2023-03-05T08:51:29.852Z,99671.72
2023-03-05T08:56:51.738Z,99667.06
2023-03-05T09:02:13.794Z,99686.38
2023-03-05T09:07:35.861Z,99674.47
2023-03-05T09:12:57.771Z,99680.44
2023-03-05T09:18:19.620Z,99678.91
2023-03-05T09:23:42.157Z,99669.47
2023-03-05T09:29:04.004Z,99685.44
2023-03-05T09:34:25.917Z,99681.13
2023-03-05T09:39:47.755Z,99672.72
2023-03-05T09:45:15.491Z,99674.53
2023-03-05T09:50:42.362Z,99683.78
2023-03-05T09:56:31.306Z,99670.25
2023-03-05T10:01:53.863Z,99678.78
2023-03-05T10:07:25.933Z,99681.91
2023-03-05T10:13:21.068Z,99682.69
2023-03-05T10:18:48.597Z,99683.28
2023-03-05T10:24:45.552Z,99669.19
2023-03-05T10:30:36.500Z,99665.84
2023-03-05T10:36:11.468Z,99657.34
2023-03-05T10:41:45.227Z,99655.22
2023-03-05T10:47:30.485Z,99652.53
2023-03-05T10:53:28.850Z,99647.25
2023-03-05T10:58:50.765Z,99638.91
2023-03-05T11:04:34.932Z,99636.63
2023-03-05T11:10:16.788Z,99637.78
2023-03-05T11:15:38.737Z,99630.75
2023-03-05T11:21:08.483Z,99626.34
2023-03-05T11:26:30.919Z,99621.97
2023-03-05T11:31:53.724Z,99610.22
2023-03-05T11:37:23.711Z,99603.44
2023-03-05T11:42:54.480Z,99613.63
2023-03-05T11:48:20.836Z,99603.53
2023-03-05T11:53:45.209Z,99601.09
2023-03-05T11:59:39.149Z,99592.59
2023-03-05T12:05:01.045Z,99569.00
2023-03-05T12:10:25.653Z,99571.47
2023-03-05T12:15:59.669Z,99579.84
2023-03-05T12:21:24.574Z,99574.94
2023-03-05T12:27:01.699Z,99580.84
2023-03-05T12:32:23.497Z,99576.00
2023-03-05T12:37:45.305Z,99574.44
2023-03-05T12:43:29.184Z,99575.22
2023-03-05T12:48:51.356Z,99550.84
2023-03-05T12:54:28.478Z,99560.78
2023-03-05T12:59:58.401Z,99557.38
2023-03-05T13:05:29.051Z,99549.56
2023-03-05T13:10:52.440Z,99555.56
2023-03-05T13:16:25.033Z,99525.28
2023-03-05T13:22:10.989Z,99542.00
2023-03-05T13:27:33.349Z,99518.25
2023-03-05T13:33:00.461Z,99547.22
2023-03-05T13:38:30.864Z,99534.41
2023-03-05T13:44:01.058Z,99513.28
2023-03-05T13:49:26.890Z,99513.41
2023-03-05T13:54:48.895Z,99522.59
2023-03-05T14:00:38.032Z,99500.53
2023-03-05T14:06:01.589Z,99508.84
2023-03-05T14:11:23.569Z,99482.16
2023-03-05T14:16:45.444Z,99498.97
2023-03-05T14:22:34.503Z,99499.03
2023-03-05T14:27:57.158Z,99492.25
2023-03-05T14:33:30.233Z,99499.81
2023-03-05T14:38:53.610Z,99470.19
2023-03-05T14:44:17.128Z,99494.66
2023-03-05T14:49:38.956Z,99487.00
2023-03-05T14:55:01.084Z,99463.44
2023-03-05T15:00:25.586Z,99481.22
2023-03-05T15:05:53.186Z,99472.84
2023-03-05T15:11:15.041Z,99468.66
2023-03-05T15:16:37.409Z,99480.41
2023-03-05T15:21:59.321Z,99486.31
2023-03-05T15:27:21.178Z,99487.19
2023-03-05T15:32:43.108Z,99489.81
2023-03-05T15:38:05.044Z,99490.69
2023-03-05T15:43:26.950Z,99473.91
2023-03-05T15:48:48.805Z,99500.06
2023-03-05T15:54:10.704Z,99497.63
2023-03-05T15:59:32.564Z,99494.25
2023-03-05T16:04:54.463Z,99501.03
2023-03-05T16:10:20.695Z,99498.50
2023-03-05T16:15:43.413Z,99487.56
2023-03-05T16:21:05.514Z,99503.59
2023-03-05T16:26:27.449Z,99507.81
2023-03-05T16:31:49.325Z,99497.72
2023-03-05T16:37:19.250Z,99507.84
2023-03-05T16:42:42.697Z,99512.91
2023-03-05T16:48:04.765Z,99512.94
2023-03-05T16:53:26.666Z,99501.09
2023-03-05T16:58:50.498Z,99508.72
2023-03-05T17:04:14.096Z,99527.31
2023-03-05T17:09:36.505Z,99511.25
2023-03-05T17:14:58.330Z,99518.00
2023-03-05T17:20:22.268Z,99536.59
2023-03-05T17:25:44.186Z,99529.84
2023-03-05T17:31:06.305Z,99529.00
2023-03-05T17:36:28.175Z,99534.88
2023-03-05T17:41:50.042Z,99520.50
2023-03-05T17:47:11.954Z,99515.38
2023-03-05T17:52:35.408Z,99528.09
2023-03-05T17:57:57.455Z,99520.41
2023-03-05T18:03:19.493Z,99508.56
2023-03-05T18:08:41.322Z,99519.50
2023-03-05T18:14:03.448Z,99527.97
2023-03-05T18:19:25.300Z,99529.63
2023-03-05T18:24:47.185Z,99530.41
2023-03-05T18:30:09.879Z,99535.47
2023-03-05T18:35:32.189Z,99530.44
2023-03-05T18:40:56.238Z,99529.50
2023-03-05T18:46:18.502Z,99522.81
2023-03-05T18:51:41.883Z,99532.91
2023-03-05T18:57:03.904Z,99532.91
2023-03-05T19:02:25.875Z,99527.84
2023-03-05T19:07:48.264Z,99517.69
2023-03-05T19:13:12.173Z,99530.34
2023-03-05T19:18:34.218Z,99529.47
2023-03-05T19:23:56.105Z,99526.09
2023-03-05T19:29:18.061Z,99529.47
2023-03-05T19:34:40.284Z,99531.06
2023-03-05T19:40:02.421Z,99536.97
2023-03-05T19:45:24.453Z,99531.91
2023-03-05T19:50:46.370Z,99525.97
2023-03-05T19:56:09.306Z,99529.31
2023-03-05T20:01:31.336Z,99531.88
2023-03-05T20:06:53.309Z,99534.31
2023-03-05T20:12:15.303Z,99536.00
2023-03-05T20:17:37.938Z,99513.06
2023-03-05T20:22:59.885Z,99537.69
2023-03-05T20:28:22.157Z,99536.81
2023-03-05T20:33:44.222Z,99523.19
2023-03-05T20:39:07.265Z,99532.47
2023-03-05T20:44:29.253Z,99520.56
2023-03-05T20:49:55.071Z,99539.16
2023-03-05T20:55:17.224Z,99533.16
2023-03-05T21:00:40.388Z,99534.91
2023-03-05T21:06:03.245Z,99536.59
2023-03-05T21:11:25.737Z,99516.28
2023-03-05T21:16:47.644Z,99538.25
2023-03-05T21:22:09.512Z,99536.53
2023-03-05T21:27:31.449Z,99528.09
2023-03-05T21:32:53.427Z,99525.53
2023-03-05T21:38:15.584Z,99517.13
2023-03-05T21:43:37.491Z,99520.50
2023-03-05T21:48:59.401Z,99519.59
2023-03-05T21:54:23.823Z,99513.72
2023-03-05T21:59:45.862Z,99512.88
2023-03-05T22:05:11.616Z,99513.69
2023-03-05T22:10:33.508Z,99514.59
2023-03-05T22:15:57.590Z,99498.56
2023-03-05T22:21:22.384Z,99505.34
2023-03-05T22:26:44.344Z,99512.13
2023-03-05T22:32:06.367Z,99515.53
2023-03-05T22:37:29.576Z,99516.41
2023-03-05T22:42:51.478Z,99516.41
2023-03-05T22:48:14.103Z,99511.38
2023-03-05T22:53:36.191Z,99516.44
2023-03-05T22:58:58.171Z,99509.66
2023-03-05T23:04:21.642Z,99510.44
2023-03-05T23:09:43.811Z,99506.91
2023-03-05T23:15:08.948Z,99501.78
2023-03-05T23:20:34.291Z,99501.72
2023-03-05T23:25:56.151Z,99466.03
2023-03-05T23:31:19.281Z,99500.72
2023-03-05T23:36:41.234Z,99498.97
2023-03-05T23:42:03.186Z,99494.78
2023-03-05T23:47:25.164Z,99499.81
2023-03-05T23:52:48.338Z,99503.94
2023-03-05T23:58:11.200Z,99476.81
